Flight Track Log - Related Links

Times and Time Zones

All times are in EDT time to prevent confusion due to time zone crossing. See the AAL6 flight status page for this flight to view local times or setup timezone preferences in your user account.

Time Position Orientation Groundspeed Altitude Reporting Facility
EDT Latitude Longitude Course Direction KTS MPH feet Rate Location/Type
Sat 12:33:52 AM 20.9000 -156.4167 32° Northeast 160 184 1,100  Level Honolulu Center
Sat 12:34:52 AM 20.9500 -156.3833 32° Northeast 200 230 2,800 2,300 Climbing Honolulu Center
Sat 12:35:52 AM 20.9833 -156.3167 62° Northeast 240 276 5,700 2,800 Climbing Honolulu Center
Sat 12:36:52 AM 20.9833 -156.2500 90° East 260 299 8,400 2,450 Climbing Honolulu Center
Sat 12:37:52 AM 21.0167 -156.1667 67° East 290 334 10,600 2,231 Climbing Honolulu Center
Sat 12:38:53 AM 21.0333 -156.0667 80° East 340 391 12,900 2,479 Climbing Honolulu Center
Sat 12:39:53 AM 21.0500 -155.9667 80° East 360 414 15,600 2,400 Climbing Honolulu Center
Sat 12:40:53 AM 21.0833 -155.8833 67° East 370 426 17,700 1,950 Climbing Honolulu Center
Sat 12:41:53 AM 21.1000 -155.7667 81° East 420 483 19,500 1,900 Climbing Honolulu Center
Sat 12:42:53 AM 21.1333 -155.6333 75° East 440 506 21,500 2,150 Climbing Honolulu Center
Sat 12:43:53 AM 21.1667 -155.5000 75° East 450 518 23,800 2,050 Climbing Honolulu Center
Sat 12:44:53 AM 21.2000 -155.3667 75° East 470 541 25,600 1,800 Climbing Honolulu Center
Sat 12:45:53 AM 21.2500 -155.2333 68° East 480 552 27,400 1,650 Climbing Honolulu Center
Sat 12:46:53 AM 21.3000 -155.1000 68° East 500 575 28,900 1,550 Climbing Honolulu Center
Sat 12:47:53 AM 21.3333 -154.9500 77° East 510 587 30,500 1,686 Climbing Honolulu Center
Sat 12:48:54 AM 21.3833 -154.8167 68° East 510 587 32,300 1,686 Climbing Honolulu Center
Sat 12:49:54 AM 21.4333 -154.6667 70° East 500 575 33,900 1,500 Climbing Honolulu Center
Sat 12:50:54 AM 21.4833 -154.5333 68° East 500 575 35,300 1,050 Climbing Honolulu Center
Sat 12:51:54 AM 21.5333 -154.3833 70° East 500 575 36,000 350 Climbing Honolulu Center
Sat 12:52:54 AM 21.5833 -154.2500 68° East 500 575 36,000  Level Honolulu Center
Sat 12:53:54 AM 21.6333 -154.0833 72° East 490 564 36,000  Level Honolulu Center
Sat 12:54:54 AM 21.6667 -153.9667 73° East 500 575 36,000  Level Honolulu Center
Sat 12:55:54 AM 21.7167 -153.8333 68° East 490 564 36,000  Level Honolulu Center
Sat 12:56:54 AM 21.7667 -153.7000 68° East 480 552 36,000  Level Honolulu Center
Sat 12:57:54 AM 21.8000 -153.5667 75° East 480 552 36,000  Level Honolulu Center
Sat 12:58:54 AM 21.8500 -153.4333 68° East 490 564 36,000  Level Honolulu Center
Sat 12:59:55 AM 21.9000 -153.2833 70° East 490 564 36,000  Level Honolulu Center
Sat 01:01:00 AM 21.9470 -153.1313 72° East  Level FlightAware Approximate
Sat 01:08:00 AM 22.2476 -152.1464 72° East  Level FlightAware Approximate
Sat 01:09:00 AM 22.2901 -152.0053 72° East  Level FlightAware Approximate
Sat 01:10:00 AM 22.3409 -151.8680 62° Northeast  Level FlightAware Approximate
Sat 01:11:00 AM 22.4054 -151.7370 62° Northeast  Level FlightAware Approximate
Sat 01:12:00 AM 22.4698 -151.6058 62° Northeast  Level FlightAware Approximate
Sat 01:13:00 AM 22.5341 -151.4746 62° Northeast  Level FlightAware Approximate
Sat 01:14:00 AM 22.5983 -151.3432 62° Northeast  Level FlightAware Approximate
Sat 01:15:00 AM 22.6624 -151.2117 62° Northeast  Level FlightAware Approximate
Sat 01:16:00 AM 22.7263 -151.0800 62° Northeast  Level FlightAware Approximate
Sat 01:17:00 AM 22.7897 -150.9480 62° Northeast  Level FlightAware Approximate
Sat 01:18:00 AM 22.8530 -150.8159 63° Northeast  Level FlightAware Approximate
Sat 01:19:00 AM 22.9162 -150.6837 63° Northeast  Level FlightAware Approximate
Sat 01:20:00 AM 22.9793 -150.5513 63° Northeast  Level FlightAware Approximate
Sat 01:21:00 AM 23.0423 -150.4188 63° Northeast  Level FlightAware Approximate
Sat 01:22:00 AM 23.1052 -150.2862 63° Northeast  Level FlightAware Approximate
Sat 01:23:00 AM 23.1679 -150.1534 63° Northeast  Level FlightAware Approximate
Sat 01:23:47 AM 22.3500 -151.8833 62° Northeast 500 575 36,000  Level Oakland Oceanic (ODAPS)
Sat 01:24:00 AM 23.2306 -150.0206 63° Northeast  Level FlightAware Approximate
Sat 01:25:00 AM 23.2931 -149.8876 63° Northeast  Level FlightAware Approximate
Sat 01:26:00 AM 23.3556 -149.7545 63° Northeast  Level FlightAware Approximate
Sat 01:27:00 AM 23.4179 -149.6212 63° Northeast  Level FlightAware Approximate
Sat 01:28:00 AM 23.4802 -149.4879 63° Northeast  Level FlightAware Approximate
Sat 01:29:00 AM 23.5429 -149.3548 63° Northeast  Level FlightAware Approximate
Sat 01:30:00 AM 23.6929 -149.0742 63° Northeast 500 575 36,000  Level FlightAware Transoceanic
Sat 01:31:00 AM 23.7556 -148.9390 63° Northeast 500 575 36,000  Level FlightAware Transoceanic
Sat 01:32:00 AM 23.8181 -148.8037 63° Northeast 500 575 36,000  Level FlightAware Transoceanic
Sat 01:33:00 AM 23.8806 -148.6683 63° Northeast 500 575 36,000  Level FlightAware Transoceanic
Sat 01:34:00 AM 23.9429 -148.5327 63° Northeast 500 575 36,000  Level FlightAware Transoceanic
Sat 01:35:00 AM 24.0051 -148.3970 63° Northeast 500 575 36,000  Level FlightAware Transoceanic
Sat 01:36:00 AM 24.0672 -148.2612 63° Northeast 500 575 36,000  Level FlightAware Transoceanic
Sat 01:37:00 AM 24.1292 -148.1252 63° Northeast 500 575 36,000  Level FlightAware Transoceanic
Sat 01:38:00 AM 24.1911 -147.9891 64° Northeast 500 575 36,000  Level FlightAware Transoceanic
Sat 01:39:00 AM 24.2528 -147.8529 64° Northeast 500 575 36,000  Level FlightAware Transoceanic
Sat 01:40:00 AM 24.3144 -147.7166 64° Northeast 500 575 36,000  Level FlightAware Transoceanic
Sat 01:41:00 AM 24.3759 -147.5801 64° Northeast 500 575 36,000  Level FlightAware Transoceanic
Sat 01:42:00 AM 24.4373 -147.4434 64° Northeast 500 575 36,000  Level FlightAware Transoceanic
Sat 01:43:00 AM 24.4985 -147.3067 64° Northeast 500 575 36,000  Level FlightAware Transoceanic
Sat 01:44:00 AM 24.5596 -147.1698 64° Northeast 500 575 36,000  Level FlightAware Transoceanic
Sat 01:45:00 AM 24.6206 -147.0328 64° Northeast 500 575 36,000  Level FlightAware Transoceanic
Sat 01:46:00 AM 24.6815 -146.8956 64° Northeast 500 575 36,000  Level FlightAware Transoceanic
Sat 01:47:00 AM 24.7423 -146.7583 64° Northeast 500 575 36,000  Level FlightAware Transoceanic
Sat 01:48:00 AM 24.8029 -146.6209 64° Northeast 500 575 36,000  Level FlightAware Transoceanic
Sat 01:49:00 AM 24.8634 -146.4834 64° Northeast 500 575 36,000  Level FlightAware Transoceanic
Sat 01:50:00 AM 24.9238 -146.3457 64° Northeast 500 575 36,000  Level FlightAware Transoceanic
Sat 01:51:00 AM 24.9840 -146.2078 64° Northeast 500 575 36,000  Level FlightAware Transoceanic
Sat 01:52:00 AM 25.0441 -146.0699 64° Northeast 500 575 36,000  Level FlightAware Transoceanic
Sat 01:53:00 AM 25.1041 -145.9318 64° Northeast 500 575 36,000  Level FlightAware Transoceanic
Sat 01:54:00 AM 25.1640 -145.7935 64° Northeast 500 575 36,000  Level FlightAware Transoceanic
Sat 01:55:00 AM 25.2237 -145.6552 65° Northeast 500 575 36,000  Level FlightAware Transoceanic
Sat 01:56:00 AM 25.2833 -145.5167 65° Northeast 500 575 36,000  Level FlightAware Transoceanic
Sat 01:57:00 AM 25.3425 -145.3780 65° Northeast 500 575 36,000  Level FlightAware Transoceanic
Sat 01:58:00 AM 25.4016 -145.2392 65° Northeast 500 575 36,000  Level FlightAware Transoceanic
Sat 01:59:00 AM 25.4605 -145.1003 65° Northeast 500 575 36,000  Level FlightAware Transoceanic
Sat 02:00:00 AM 25.5193 -144.9612 65° Northeast 500 575 36,000  Level FlightAware Transoceanic
Sat 02:01:00 AM 25.5779 -144.8220 65° Northeast 500 575 36,000  Level FlightAware Transoceanic
Sat 02:02:00 AM 25.6365 -144.6826 65° Northeast 500 575 36,000  Level FlightAware Transoceanic
Sat 02:02:20 AM 25.2833 -145.5167 65° Northeast 521 600 36,000  Level Oakland Oceanic (ODAPS)
Sat 02:03:00 AM 25.6949 -144.5431 65° Northeast 500 575 36,000  Level FlightAware Transoceanic
Sat 02:04:00 AM 25.7531 -144.4035 65° Northeast 500 575 36,000  Level FlightAware Transoceanic
Sat 02:05:00 AM 25.8113 -144.2637 65° Northeast 500 575 36,000  Level FlightAware Transoceanic
Sat 02:06:00 AM 25.8692 -144.1239 65° Northeast 500 575 36,000  Level FlightAware Transoceanic
Sat 02:07:00 AM 25.9271 -143.9838 65° Northeast 500 575 36,000  Level FlightAware Transoceanic
Sat 02:08:00 AM 26.0156 -143.7688 65° Northeast 521 600 36,000  Level FlightAware Transoceanic
Sat 02:09:00 AM 26.0756 -143.6222 66° East 521 600 36,000  Level FlightAware Transoceanic
Sat 02:10:00 AM 26.1356 -143.4754 66° East 521 600 36,000  Level FlightAware Transoceanic
Sat 02:11:00 AM 26.1953 -143.3285 66° East 521 600 36,000  Level FlightAware Transoceanic
Sat 02:12:00 AM 26.2550 -143.1814 66° East 521 600 36,000  Level FlightAware Transoceanic
Sat 02:13:00 AM 26.3144 -143.0342 66° East 521 600 36,000  Level FlightAware Transoceanic
Sat 02:14:00 AM 26.3738 -142.8868 66° East 521 600 36,000  Level FlightAware Transoceanic
Sat 02:15:00 AM 26.4329 -142.7393 66° East 521 600 36,000  Level FlightAware Transoceanic
Sat 02:16:00 AM 26.4920 -142.5916 66° East 521 600 36,000  Level FlightAware Transoceanic
Sat 02:17:00 AM 26.5508 -142.4438 66° East 521 600 36,000  Level FlightAware Transoceanic
Sat 02:18:00 AM 26.6096 -142.2958 66° East 521 600 36,000  Level FlightAware Transoceanic
Sat 02:19:00 AM 26.6681 -142.1477 66° East 521 600 36,000  Level FlightAware Transoceanic
Sat 02:20:00 AM 26.7265 -141.9994 66° East 521 600 36,000  Level FlightAware Transoceanic
Sat 02:21:00 AM 26.7848 -141.8509 66° East 521 600 36,000  Level FlightAware Transoceanic
Sat 02:22:00 AM 26.8429 -141.7023 66° East 521 600 36,000  Level FlightAware Transoceanic
Sat 02:23:00 AM 26.9008 -141.5536 66° East 521 600 36,000  Level FlightAware Transoceanic
Sat 02:24:00 AM 26.9586 -141.4047 67° East 521 600 36,000  Level FlightAware Transoceanic
Sat 02:25:00 AM 27.0163 -141.2556 67° East 521 600 36,000  Level FlightAware Transoceanic
Sat 02:26:00 AM 27.0737 -141.1064 67° East 521 600 36,000  Level FlightAware Transoceanic
Sat 02:27:00 AM 27.1311 -140.9571 67° East 521 600 36,000  Level FlightAware Transoceanic
Sat 02:28:00 AM 27.1882 -140.8076 67° East 521 600 36,000  Level FlightAware Transoceanic
Sat 02:29:00 AM 27.2452 -140.6579 67° East 521 600 36,000  Level FlightAware Transoceanic
Sat 02:30:00 AM 27.3021 -140.5081 67° East 521 600 36,000  Level FlightAware Transoceanic
Sat 02:31:00 AM 27.3587 -140.3581 67° East 521 600 36,000  Level FlightAware Transoceanic
Sat 02:32:00 AM 27.4153 -140.2080 67° East 521 600 36,000  Level FlightAware Transoceanic
Sat 02:33:00 AM 27.4716 -140.0577 67° East 521 600 36,000  Level FlightAware Transoceanic
Sat 02:34:00 AM 27.5278 -139.9073 67° East 521 600 36,000  Level FlightAware Transoceanic
Sat 02:35:00 AM 27.5839 -139.7567 67° East 521 600 36,000  Level FlightAware Transoceanic
Sat 02:36:00 AM 27.6397 -139.6060 67° East 521 600 36,000  Level FlightAware Transoceanic
Sat 02:37:00 AM 27.6955 -139.4551 67° East 521 600 36,000  Level FlightAware Transoceanic
Sat 02:38:00 AM 27.7510 -139.3040 67° East 521 600 36,000  Level FlightAware Transoceanic
Sat 02:39:00 AM 27.8064 -139.1529 68° East 521 600 36,000  Level FlightAware Transoceanic
Sat 02:40:00 AM 27.8616 -139.0015 68° East 521 600 36,000  Level FlightAware Transoceanic
Sat 02:41:00 AM 27.9167 -138.8500 68° East 521 600 36,000  Level FlightAware Transoceanic
Sat 02:42:00 AM 27.9710 -138.6999 68° East 521 600 36,000  Level FlightAware Transoceanic
Sat 02:43:00 AM 28.0251 -138.5497 68° East 521 600 36,000  Level FlightAware Transoceanic
Sat 02:44:00 AM 28.0790 -138.3993 68° East 521 600 36,000  Level FlightAware Transoceanic
Sat 02:44:28 AM 27.9167 -138.8500 68° East 528 608 36,000  Level Oakland Oceanic (ODAPS)
Sat 02:45:00 AM 28.1328 -138.2488 68° East 521 600 36,000  Level FlightAware Transoceanic
Sat 02:46:00 AM 28.1865 -138.0981 68° East 521 600 36,000  Level FlightAware Transoceanic
Sat 02:47:00 AM 28.2399 -137.9473 68° East 521 600 36,000  Level FlightAware Transoceanic
Sat 02:48:00 AM 28.2932 -137.7963 68° East 521 600 36,000  Level FlightAware Transoceanic
Sat 02:49:00 AM 28.3464 -137.6451 68° East 521 600 36,000  Level FlightAware Transoceanic
Sat 02:50:00 AM 28.4636 -137.3095 68° East 528 608 36,000  Level FlightAware Transoceanic
Sat 02:51:00 AM 28.5173 -137.1546 68° East 528 608 36,000  Level FlightAware Transoceanic
Sat 02:52:00 AM 28.5709 -136.9995 69° East 528 608 36,000  Level FlightAware Transoceanic
Sat 02:53:00 AM 28.6243 -136.8442 69° East 528 608 36,000  Level FlightAware Transoceanic
Sat 02:54:00 AM 28.6775 -136.6888 69° East 528 608 36,000  Level FlightAware Transoceanic
Sat 02:55:00 AM 28.7305 -136.5333 69° East 528 608 36,000  Level FlightAware Transoceanic
Sat 02:56:00 AM 28.7834 -136.3776 69° East 528 608 36,000  Level FlightAware Transoceanic
Sat 02:57:00 AM 28.8361 -136.2217 69° East 528 608 36,000  Level FlightAware Transoceanic
Sat 02:58:00 AM 28.8886 -136.0657 69° East 528 608 36,000  Level FlightAware Transoceanic
Sat 02:59:00 AM 28.9409 -135.9095 69° East 528 608 36,000  Level FlightAware Transoceanic
Sat 03:00:00 AM 28.9930 -135.7532 69° East 528 608 36,000  Level FlightAware Transoceanic
Sat 03:01:00 AM 29.0450 -135.5967 69° East 528 608 36,000  Level FlightAware Transoceanic
Sat 03:02:00 AM 29.0967 -135.4400 69° East 528 608 36,000  Level FlightAware Transoceanic
Sat 03:03:00 AM 29.1483 -135.2832 69° East 528 608 36,000  Level FlightAware Transoceanic
Sat 03:04:00 AM 29.1997 -135.1262 69° East 528 608 36,000  Level FlightAware Transoceanic
Sat 03:05:00 AM 29.2510 -134.9691 70° East 528 608 36,000  Level FlightAware Transoceanic
Sat 03:06:00 AM 29.3020 -134.8118 70° East 528 608 36,000  Level FlightAware Transoceanic
Sat 03:07:00 AM 29.3529 -134.6544 70° East 528 608 36,000  Level FlightAware Transoceanic
Sat 03:08:00 AM 29.4035 -134.4968 70° East 528 608 36,000  Level FlightAware Transoceanic
Sat 03:09:00 AM 29.4540 -134.3390 70° East 528 608 36,000  Level FlightAware Transoceanic
Sat 03:10:00 AM 29.5043 -134.1811 70° East 528 608 36,000  Level FlightAware Transoceanic
Sat 03:11:00 AM 29.5544 -134.0231 70° East 528 608 36,000  Level FlightAware Transoceanic
Sat 03:12:00 AM 29.6044 -133.8648 70° East 528 608 36,000  Level FlightAware Transoceanic
Sat 03:13:00 AM 29.6541 -133.7065 70° East 528 608 36,000  Level FlightAware Transoceanic
Sat 03:14:00 AM 29.7036 -133.5479 70° East 528 608 36,000  Level FlightAware Transoceanic
Sat 03:15:00 AM 29.7530 -133.3892 70° East 528 608 36,000  Level FlightAware Transoceanic
Sat 03:16:00 AM 29.8022 -133.2304 70° East 528 608 36,000  Level FlightAware Transoceanic
Sat 03:17:00 AM 29.8512 -133.0714 70° East 528 608 36,000  Level FlightAware Transoceanic
Sat 03:18:00 AM 29.9000 -132.9122 71° East 528 608 36,000  Level FlightAware Transoceanic
Sat 03:19:00 AM 29.9485 -132.7529 71° East 528 608 36,000  Level FlightAware Transoceanic
Sat 03:20:00 AM 29.9970 -132.5934 71° East 528 608 36,000  Level FlightAware Transoceanic
Sat 03:21:00 AM 30.0452 -132.4338 71° East 528 608 36,000  Level FlightAware Transoceanic
Sat 03:22:00 AM 30.0932 -132.2740 71° East 528 608 36,000  Level FlightAware Transoceanic
Sat 03:23:00 AM 30.1410 -132.1141 71° East 528 608 36,000  Level FlightAware Transoceanic
Sat 03:24:00 AM 30.1887 -131.9540 71° East 528 608 36,000  Level FlightAware Transoceanic
Sat 03:25:00 AM 30.2361 -131.7937 71° East 528 608 36,000  Level FlightAware Transoceanic
Sat 03:26:00 AM 30.2833 -131.6333 71° East 528 608 36,000  Level FlightAware Transoceanic
Sat 03:27:00 AM 30.3287 -131.4796 71° East 528 608 36,000  Level FlightAware Transoceanic
Sat 03:27:42 AM 30.2833 -131.6333 71° East 539 620 36,000  Level Oakland Oceanic (ODAPS)
Sat 03:28:00 AM 30.3739 -131.3258 71° East 528 608 36,000  Level FlightAware Transoceanic
Sat 03:29:00 AM 30.4189 -131.1718 71° East 528 608 36,000  Level FlightAware Transoceanic
Sat 03:30:00 AM 30.4637 -131.0177 71° East 528 608 36,000  Level FlightAware Transoceanic
Sat 03:31:00 AM 30.5084 -130.8635 71° East 528 608 36,000  Level FlightAware Transoceanic
Sat 03:32:00 AM 30.5529 -130.7091 72° East 528 608 36,000  Level FlightAware Transoceanic
Sat 03:33:00 AM 30.6647 -130.3173 72° East 539 620 36,000  Level FlightAware Transoceanic
Sat 03:34:00 AM 30.7114 -130.1521 72° East 539 620 36,000  Level FlightAware Transoceanic
Sat 03:35:00 AM 30.7580 -129.9867 72° East 539 620 36,000  Level FlightAware Transoceanic
Sat 03:36:00 AM 30.8043 -129.8211 72° East 539 620 36,000  Level FlightAware Transoceanic
Sat 03:37:00 AM 30.8504 -129.6554 72° East 539 620 36,000  Level FlightAware Transoceanic
Sat 03:38:00 AM 30.8963 -129.4896 72° East 539 620 36,000  Level FlightAware Transoceanic
Sat 03:39:00 AM 30.9420 -129.3235 72° East 539 620 36,000  Level FlightAware Transoceanic
Sat 03:40:00 AM 30.9874 -129.1574 72° East 539 620 36,000  Level FlightAware Transoceanic
Sat 03:41:00 AM 31.0327 -128.9910 72° East 539 620 36,000  Level FlightAware Transoceanic
Sat 03:42:00 AM 31.0777 -128.8245 73° East 539 620 36,000  Level FlightAware Transoceanic
Sat 03:43:00 AM 31.1226 -128.6579 73° East 539 620 36,000  Level FlightAware Transoceanic
Sat 03:44:00 AM 31.1672 -128.4911 73° East 539 620 36,000  Level FlightAware Transoceanic
Sat 03:45:00 AM 31.2116 -128.3241 73° East 539 620 36,000  Level FlightAware Transoceanic
Sat 03:46:00 AM 31.2558 -128.1570 73° East 539 620 36,000  Level FlightAware Transoceanic
Sat 03:47:00 AM 31.2997 -127.9897 73° East 539 620 36,000  Level FlightAware Transoceanic
Sat 03:48:00 AM 31.3435 -127.8222 73° East 539 620 36,000  Level FlightAware Transoceanic
Sat 03:49:00 AM 31.3870 -127.6546 73° East 539 620 36,000  Level FlightAware Transoceanic
Sat 03:50:00 AM 31.4304 -127.4869 73° East 539 620 36,000  Level FlightAware Transoceanic
Sat 03:51:00 AM 31.4734 -127.3190 73° East 539 620 36,000  Level FlightAware Transoceanic
Sat 03:52:00 AM 31.5163 -127.1509 73° East 539 620 36,000  Level FlightAware Transoceanic
Sat 03:53:00 AM 31.5590 -126.9827 73° East 539 620 36,000  Level FlightAware Transoceanic
Sat 03:54:00 AM 31.6014 -126.8144 74° East 539 620 36,000  Level FlightAware Transoceanic
Sat 03:55:00 AM 31.6437 -126.6459 74° East 539 620 36,000  Level FlightAware Transoceanic
Sat 03:56:00 AM 31.6856 -126.4772 74° East 539 620 36,000  Level FlightAware Transoceanic
Sat 03:57:00 AM 31.7274 -126.3083 74° East 539 620 36,000  Level FlightAware Transoceanic
Sat 03:58:00 AM 31.7690 -126.1394 74° East 539 620 36,000  Level FlightAware Transoceanic
Sat 03:59:00 AM 31.8103 -125.9703 74° East 539 620 36,000  Level FlightAware Transoceanic
Sat 04:00:00 AM 31.8514 -125.8010 74° East 539 620 36,000  Level FlightAware Transoceanic
Sat 04:01:00 AM 31.8923 -125.6316 74° East 539 620 36,000  Level FlightAware Transoceanic
Sat 04:02:00 AM 31.9329 -125.4620 74° East 539 620 36,000  Level FlightAware Transoceanic
Sat 04:03:00 AM 31.9734 -125.2922 74° East 539 620 36,000  Level FlightAware Transoceanic
Sat 04:04:00 AM 32.0136 -125.1224 74° East 539 620 36,000  Level FlightAware Transoceanic
Sat 04:05:00 AM 32.0535 -124.9523 75° East 539 620 36,000  Level FlightAware Transoceanic
Sat 04:06:00 AM 32.0933 -124.7822 75° East 539 620 36,000  Level FlightAware Transoceanic
Sat 04:07:00 AM 32.1328 -124.6118 75° East 539 620 36,000  Level FlightAware Transoceanic
Sat 04:08:00 AM 32.1721 -124.4414 75° East 539 620 36,000  Level FlightAware Transoceanic
Sat 04:09:00 AM 32.2112 -124.2708 75° East 539 620 36,000  Level FlightAware Transoceanic
Sat 04:10:00 AM 32.2500 -124.1000 77° East 539 620 36,000  Level FlightAware Transoceanic
Sat 04:11:00 AM 32.2815 -123.9432 77° East 539 620 36,000  Level FlightAware Transoceanic
Sat 04:11:09 AM 32.2536 -123.9711 77° East 536 617 36,000  Level Los Angeles Center
Sat 04:12:00 AM 32.3129 -123.7862 77° East 539 620 36,000  Level FlightAware Transoceanic
Sat 04:12:09 AM 32.2897 -123.8028 76° East 532 612 36,000  Level Los Angeles Center
Sat 04:13:00 AM 32.3440 -123.6292 77° East 539 620 36,000  Level FlightAware Transoceanic
Sat 04:13:10 AM 32.3272 -123.6328 75° East 534 615 36,000  Level Los Angeles Center
Sat 04:14:00 AM 32.3750 -123.4721 77° East 539 620 36,000 1,000 Level FlightAware Transoceanic
Sat 04:14:10 AM 32.3656 -123.4642 75° East 534 615 37,000  Climbing Los Angeles Center
Sat 04:15:00 AM 32.4057 -123.3148 77° East 539 620 36,000  Descending FlightAware Transoceanic
Sat 04:15:10 AM 32.4047 -123.2972 74° East 532 612 37,000  Climbing Los Angeles Center
Sat 04:16:00 AM 32.4363 -123.1575 77° East 539 620 36,000  Descending FlightAware Transoceanic
Sat 04:16:11 AM 32.4408 -123.1281 76° East 532 612 37,000 845 Climbing Los Angeles Center
Sat 04:17:11 AM 32.4767 -122.9589 76° East 532 612 37,000  Level Los Angeles Center
Sat 04:18:12 AM 32.5133 -122.7906 75° East 531 611 37,000  Level Los Angeles Center
Sat 04:19:12 AM 32.5500 -122.6244 75° East 529 609 37,000  Level Los Angeles Center
Sat 04:20:12 AM 32.5933 -122.4236 76° East 527 606 37,000  Level Los Angeles Center
Sat 04:25:54 AM 32.7900 -121.5640 76° East 527 606 37,000  Level FlightAware ADS-B
Sat 04:26:38 AM 32.8120 -121.4590 76° East 527 606 37,000  Level FlightAware ADS-B
Sat 04:27:24 AM 32.8350 -121.3490 76° East 527 606 37,000  Level FlightAware ADS-B
Sat 04:29:06 AM 32.8860 -121.1050 76° East 527 606 37,000  Level FlightAware ADS-B
Sat 04:29:46 AM 32.9300 -120.8720 77° East 526 605 37,000  Level FlightAware ADS-B
Sat 04:30:39 AM 32.9620 -120.7050 77° East 525 604 37,000  Level FlightAware ADS-B
Sat 04:31:23 AM 32.9920 -120.5520 77° East 525 604 37,000  Level FlightAware ADS-B
Sat 04:32:26 AM 33.0260 -120.3800 77° East 526 605 37,000  Level FlightAware ADS-B
Sat 04:33:09 AM 33.0500 -120.2570 77° East 526 605 37,000  Level FlightAware ADS-B
Sat 04:33:48 AM 33.0710 -120.1440 77° East 526 605 37,000  Level FlightAware ADS-B
Sat 04:34:32 AM 33.0950 -120.0220 77° East 525 604 37,000  Level FlightAware ADS-B
Sat 04:35:14 AM 33.1170 -119.9030 78° East 525 604 37,000  Level FlightAware ADS-B
Sat 04:36:26 AM 33.1490 -119.7320 77° East 525 604 37,000  Level FlightAware ADS-B
Sat 04:37:06 AM 33.1770 -119.5840 77° East 525 604 37,000  Level FlightAware ADS-B
Sat 04:37:46 AM 33.1970 -119.4740 78° East 526 605 37,000  Level FlightAware ADS-B
Sat 04:38:26 AM 33.2190 -119.3580 77° East 526 605 37,000  Level FlightAware ADS-B
Sat 04:39:14 AM 33.2430 -119.2240 78° East 527 606 37,000  Level FlightAware ADS-B
Sat 04:39:54 AM 33.2640 -119.1080 78° East 527 606 37,000  Level FlightAware ADS-B
Sat 04:40:32 AM 33.2830 -119.0040 78° East 528 608 37,000  Level FlightAware ADS-B
Sat 04:41:18 AM 33.3070 -118.8690 78° East 528 608 37,000  Level FlightAware ADS-B
Sat 04:42:14 AM 33.3320 -118.7320 78° East 528 608 37,000  Level FlightAware ADS-B
Sat 04:42:58 AM 33.3580 -118.5850 78° East 528 608 37,000  Level FlightAware ADS-B
Sat 04:43:38 AM 33.3780 -118.4720 78° East 527 606 37,000  Level FlightAware ADS-B
Sat 04:44:18 AM 33.3970 -118.3570 79° East 528 608 37,000  Level FlightAware ADS-B
Sat 04:45:04 AM 33.4140 -118.2260 81° East 528 608 37,000  Level FlightAware ADS-B
Sat 04:45:58 AM 33.4340 -118.0700 81° East 529 609 37,000  Level FlightAware ADS-B
Sat 04:46:38 AM 33.4490 -117.9540 81° East 529 609 37,000  Level FlightAware ADS-B
Sat 04:47:24 AM 33.4670 -117.8190 81° East 529 609 37,000  Level FlightAware ADS-B
Sat 04:48:04 AM 33.4820 -117.7050 81° East 530 610 37,000  Level FlightAware ADS-B
Sat 04:48:48 AM 33.4990 -117.5760 81° East 531 611 37,000  Level FlightAware ADS-B
Sat 04:49:26 AM 33.5130 -117.4640 81° East 532 612 37,000  Level FlightAware ADS-B
Sat 04:50:10 AM 33.5300 -117.3360 81° East 533 613 37,000  Level FlightAware ADS-B
Sat 04:51:16 AM 33.5540 -117.1450 81° East 532 612 37,000  Level FlightAware ADS-B
Sat 04:52:02 AM 33.5680 -117.0090 83° East 533 613 37,000  Level FlightAware ADS-B
Sat 04:52:44 AM 33.5770 -116.8860 85° East 534 615 37,000  Level FlightAware ADS-B
Sat 04:53:26 AM 33.5840 -116.7620 86° East 534 615 37,000  Level FlightAware ADS-B
Sat 04:54:10 AM 33.5900 -116.6330 87° East 534 615 37,000  Level FlightAware ADS-B
Sat 04:54:50 AM 33.5960 -116.5140 87° East 534 615 37,000  Level FlightAware ADS-B
Sat 04:55:10 AM 33.5990 -116.4560 86° East 534 615 37,000  Level FlightAware ADS-B
Sat 04:56:36 AM 33.6100 -116.2090 87° East 531 611 37,000  Level FlightAware ADS-B
Sat 04:57:33 AM 33.6180 -116.0560 86° East 531 611 37,000  Level FlightAware ADS-B
Sat 04:58:19 AM 33.6250 -115.9410 86° East 531 611 37,000  Level FlightAware ADS-B
Sat 04:58:50 AM 33.6280 -115.8070 88° East 533 613 37,000  Level FlightAware ADS-B
Sat 04:59:40 AM 33.6340 -115.6810 87° East 533 613 37,000  Level FlightAware ADS-B
Sat 05:00:16 AM 33.6380 -115.5910 87° East 533 613 37,000  Level FlightAware ADS-B
Sat 05:01:02 AM 33.6430 -115.4750 87° East 533 613 37,000  Level FlightAware ADS-B
Sat 05:01:39 AM 33.6470 -115.3820 87° East 533 613 37,000  Level FlightAware ADS-B
Sat 05:02:27 AM 33.6520 -115.2610 87° East 533 613 37,000  Level FlightAware ADS-B
Sat 05:03:13 AM 33.6570 -115.1460 87° East 533 613 37,000  Level FlightAware ADS-B
Sat 05:03:53 AM 33.6610 -115.0450 87° East 533 613 37,000  Level FlightAware ADS-B
Sat 05:04:28 AM 33.6660 -114.8610 88° East 536 617 37,000  Level FlightAware ADS-B
Sat 05:05:13 AM 33.6710 -114.7000 88° East 536 617 37,000  Level FlightAware ADS-B
Sat 05:06:49 AM 33.6740 -114.6400 87° East 536 617 37,000  Level FlightAware ADS-B
Sat 05:07:24 AM 33.6840 -114.3190 88° East 534 615 37,000  Level FlightAware ADS-B
Sat 05:08:12 AM 33.6880 -114.1710 88° East 534 615 37,000  Level FlightAware ADS-B
Sat 05:09:07 AM 33.6940 -113.9810 88° East 532 612 37,000  Level FlightAware ADS-B
Sat 05:09:51 AM 33.6980 -113.8510 88° East 532 612 37,000  Level FlightAware ADS-B
Sat 05:10:31 AM 33.7000 -113.7550 89° East 532 612 37,000  Level FlightAware ADS-B
Sat 05:11:27 AM 33.7050 -113.5780 88° East 531 611 37,000  Level FlightAware ADS-B
Sat 05:12:03 AM 33.7080 -113.4630 88° East 529 609 37,000  Level FlightAware ADS-B
Sat 05:12:51 AM 33.7110 -113.3240 88° East 529 609 37,000  Level FlightAware ADS-B
Sat 05:13:33 AM 33.7140 -113.1980 88° East 529 609 37,000  Level FlightAware ADS-B
Sat 05:14:11 AM 33.7170 -113.0860 88° East 530 610 37,000  Level FlightAware ADS-B
Sat 05:14:55 AM 33.7190 -112.9580 89° East 530 610 37,000  Level FlightAware ADS-B
Sat 05:15:51 AM 33.7230 -112.7940 88° East 528 608 37,000  Level FlightAware ADS-B
Sat 05:16:37 AM 33.7250 -112.6590 89° East 525 604 37,000  Level FlightAware ADS-B
Sat 05:17:01 AM 33.7260 -112.5910 89° East 524 603 37,000  Level FlightAware ADS-B
Sat 05:17:43 AM 33.7280 -112.4730 89° East 524 603 37,000  Level FlightAware ADS-B
Sat 05:18:25 AM 33.7300 -112.3460 89° East 523 602 37,000  Level FlightAware ADS-B
Sat 05:19:06 AM 33.7320 -112.2290 89° East 523 602 37,000  Level FlightAware ADS-B
Sat 05:19:51 AM 33.7340 -112.0970 89° East 522 601 37,000  Level FlightAware ADS-B
Sat 05:20:32 AM 33.7360 -111.9820 89° East 521 600 37,000  Level FlightAware ADS-B
Sat 05:21:11 AM 33.7370 -111.8670 89° East 521 600 37,000  Level FlightAware ADS-B
Sat 05:21:55 AM 33.7390 -111.7380 89° East 519 597 37,000  Level FlightAware ADS-B
Sat 05:22:32 AM 33.7400 -111.6330 89° East 519 597 37,000  Level FlightAware ADS-B
Sat 05:23:22 AM 33.7420 -111.4880 89° East 518 596 37,000  Level FlightAware ADS-B
Sat 05:24:02 AM 33.7430 -111.3760 89° East 517 595 37,000  Level FlightAware ADS-B
Sat 05:24:42 AM 33.7440 -111.2590 89° East 516 594 37,000  Level FlightAware ADS-B
Sat 05:25:55 AM 33.7450 -111.1340 89° East 515 593 37,000  Level FlightAware ADS-B
Sat 05:26:36 AM 33.7460 -110.9350 90° East 516 594 37,000  Level FlightAware ADS-B
Sat 05:27:20 AM 33.7470 -110.8070 89° East 516 594 37,000  Level FlightAware ADS-B
Sat 05:27:56 AM 33.7470 -110.7060 90° East 517 595 37,000  Level FlightAware ADS-B
Sat 05:28:36 AM 33.7470 -110.6230 90° East 518 596 37,000  Level FlightAware ADS-B
Sat 05:29:25 AM 33.7480 -110.4500 90° East 519 597 37,000  Level FlightAware ADS-B
Sat 05:30:13 AM 33.7480 -110.3120 90° East 521 600 37,000  Level FlightAware ADS-B
Sat 05:31:02 AM 33.7480 -110.1720 90° East 520 598 37,000  Level FlightAware ADS-B
Sat 05:31:56 AM 33.7480 -110.0530 90° East 519 597 37,000  Level FlightAware ADS-B
Sat 05:32:40 AM 33.7480 -109.9550 90° East 519 597 37,000  Level FlightAware ADS-B
Sat 05:33:16 AM 33.7480 -109.8670 90° East 519 597 37,000  Level FlightAware ADS-B
Sat 05:33:59 AM 33.7470 -109.7210 90° East 520 598 37,000  Level FlightAware ADS-B
Sat 05:34:37 AM 33.7470 -109.6280 90° East 520 598 37,000  Level FlightAware ADS-B
Sat 05:35:14 AM 33.7470 -109.5370 90° East 520 598 37,000  Level FlightAware ADS-B
Sat 05:36:06 AM 33.7470 -109.4090 90° East 520 598 37,000  Level FlightAware ADS-B
Sat 05:36:42 AM 33.7470 -109.3200 90° East 520 598 37,000  Level FlightAware ADS-B
Sat 05:37:31 AM 33.7470 -109.2000 90° East 520 598 37,000  Level FlightAware ADS-B
Sat 05:38:07 AM 33.7470 -109.1110 90° East 520 598 37,000  Level FlightAware ADS-B
Sat 05:38:55 AM 33.7470 -108.9930 90° East 520 598 37,000  Level FlightAware ADS-B
Sat 05:39:33 AM 33.7470 -108.9000 90° East 520 598 37,000  Level FlightAware ADS-B
Sat 05:40:09 AM 33.7470 -108.8110 90° East 520 598 37,000  Level FlightAware ADS-B
Sat 05:40:50 AM 33.7470 -108.7110 90° East 520 598 37,000  Level FlightAware ADS-B
Sat 05:41:37 AM 33.7470 -108.5950 90° East 520 598 37,000  Level FlightAware ADS-B
Sat 05:42:15 AM 33.7470 -108.5010 90° East 520 598 37,000  Level FlightAware ADS-B
Sat 05:43:02 AM 33.7470 -108.3860 90° East 520 598 37,000  Level FlightAware ADS-B
Sat 05:43:48 AM 33.7470 -108.2730 90° East 520 598 37,000  Level FlightAware ADS-B
Sat 05:44:42 AM 33.7206 -107.8517 90° East 515 593 37,000  Level Albuquerque Center
Sat 05:45:42 AM 33.7169 -107.6786 91° East 518 596 37,000  Level Albuquerque Center
Sat 05:46:43 AM 33.7139 -107.5056 91° East 518 596 37,000  Level Albuquerque Center
Sat 05:47:43 AM 33.7092 -107.3350 92° East 513 590 37,000  Level Albuquerque Center
Sat 05:48:43 AM 33.7056 -107.1622 91° East 514 592 37,000  Level Albuquerque Center
Sat 05:49:43 AM 33.7014 -106.9892 92° East 517 595 37,000  Level Albuquerque Center
Sat 05:50:43 AM 33.6961 -106.8161 92° East 518 596 37,000  Level Albuquerque Center
Sat 05:51:43 AM 33.6911 -106.6431 92° East 517 595 37,000  Level Albuquerque Center
Sat 05:52:43 AM 33.6861 -106.4714 92° East 515 593 37,000  Level Albuquerque Center
Sat 05:53:44 AM 33.6808 -106.3011 92° East 513 590 37,000  Level Albuquerque Center
Sat 05:54:44 AM 33.6750 -106.1314 92° East 509 586 37,000  Level Albuquerque Center
Sat 05:55:44 AM 33.6697 -105.9647 92° East 503 579 37,000  Level Albuquerque Center
Sat 05:56:44 AM 33.6644 -105.7964 92° East 504 580 37,000  Level Albuquerque Center
Sat 05:57:44 AM 33.6583 -105.6308 92° East 500 575 37,000  Level Albuquerque Center
Sat 05:58:44 AM 33.6494 -105.4292 93° East 503 579 37,000  Level Albuquerque Center
Sat 05:59:44 AM 33.6439 -105.2619 92° East 503 579 37,000  Level Albuquerque Center
Sat 06:00:45 AM 33.6361 -105.0956 93° East 501 577 37,000  Level Albuquerque Center
Sat 06:01:45 AM 33.6294 -104.9289 93° East 501 577 37,000  Level Albuquerque Center
Sat 06:02:45 AM 33.6228 -104.7617 93° East 503 579 37,000  Level Albuquerque Center
Sat 06:03:45 AM 33.6150 -104.5947 93° East 501 577 37,000  Level Albuquerque Center
Sat 06:04:45 AM 33.6083 -104.4256 93° East 505 581 37,000  Level Albuquerque Center
Sat 06:05:45 AM 33.5997 -104.2583 93° East 503 579 37,000  Level Albuquerque Center
Sat 06:06:45 AM 33.5925 -104.0917 93° East 501 577 37,000  Level Albuquerque Center
Sat 06:07:46 AM 33.5831 -103.9247 94° East 501 577 37,000  Level Albuquerque Center
Sat 06:08:46 AM 33.5756 -103.7578 93° East 502 578 37,000  Level Albuquerque Center
Sat 06:09:46 AM 33.5681 -103.6247 94° East 504 580 37,000  Level Albuquerque Center
Sat 06:10:46 AM 33.5578 -103.4203 93° East 508 585 37,000  Level Albuquerque Center
Sat 06:16:29 AM 33.5120 -102.4390 93° East 516 594 37,000  Level FlightAware ADS-B
Sat 06:17:18 AM 33.5050 -102.3200 94° East 516 594 37,000  Level FlightAware ADS-B
Sat 06:17:55 AM 33.5000 -102.2310 94° East 516 594 37,000  Level FlightAware ADS-B
Sat 06:18:31 AM 33.4950 -102.1430 94° East 516 594 37,000  Level FlightAware ADS-B
Sat 06:19:21 AM 33.4880 -102.0220 94° East 516 594 37,000  Level FlightAware ADS-B
Sat 06:19:57 AM 33.4830 -101.9350 94° East 516 594 37,000  Level FlightAware ADS-B
Sat 06:21:09 AM 33.4720 -101.7600 94° East 516 594 37,000  Level FlightAware ADS-B
Sat 06:21:57 AM 33.4660 -101.6430 93° East 516 594 37,000  Level FlightAware ADS-B
Sat 06:22:35 AM 33.4600 -101.5510 94° East 516 594 37,000  Level FlightAware ADS-B
Sat 06:23:11 AM 33.4550 -101.4640 94° East 516 594 37,000  Level FlightAware ADS-B
Sat 06:23:59 AM 33.4480 -101.3470 94° East 516 594 37,000  Level FlightAware ADS-B
Sat 06:25:00 AM 33.4400 -101.1990 94° East 516 594 37,000  Level FlightAware ADS-B
Sat 06:25:50 AM 33.4330 -101.0780 94° East 516 594 37,000  Level FlightAware ADS-B
Sat 06:26:26 AM 33.4280 -100.9910 94° East 516 594 37,000 -17 Level FlightAware ADS-B
Sat 06:31:52 AM 33.3160 -99.8100 96° East 514 592 36,900 -113 Descending FlightAware ADS-B
Sat 06:32:37 AM 33.3050 -99.6820 96° East 513 590 36,300 -795 Descending FlightAware ADS-B
Sat 06:33:15 AM 33.2960 -99.5780 96° East 508 585 35,800 -835 Descending FlightAware ADS-B
Sat 06:33:56 AM 33.2860 -99.4670 96° East 503 579 35,200 -1,186 Descending FlightAware ADS-B
Sat 06:34:41 AM 33.2750 -99.3360 96° East 505 581 34,100 -1,079 Descending FlightAware ADS-B
Sat 06:35:25 AM 33.2660 -99.2280 96° East 506 582 33,600 -297 Descending FlightAware ADS-B
Sat 06:36:22 AM 33.2560 -99.0920 95° East 506 582 33,600  Level FlightAware ADS-B
Sat 06:37:00 AM 33.2490 -99.0020 95° East 506 582 33,600  Level FlightAware ADS-B
Sat 06:37:36 AM 33.2430 -98.9170 95° East 506 582 33,600  Level FlightAware ADS-B
Sat 06:38:25 AM 33.2350 -98.8010 95° East 506 582 33,600  Level FlightAware ADS-B
Sat 06:39:01 AM 33.2280 -98.7160 96° East 506 582 33,600  Level FlightAware ADS-B
Sat 06:39:50 AM 33.2200 -98.5990 95° East 506 582 33,600  Level FlightAware ADS-B
Sat 06:40:26 AM 33.2140 -98.5140 95° East 506 582 33,600  Level FlightAware ADS-B
Sat 06:41:07 AM 33.2060 -98.4170 96° East 506 582 33,600 -10,200 Level FlightAware ADS-B
Sat 06:41:56 AM 33.1670 -98.2070 102° East 436 502 18,300 -10,800 Descending FlightAware ADS-B
Sat 06:42:32 AM 33.1600 -98.1340 97° East 436 502 18,300  Level FlightAware ADS-B
Sat 06:43:20 AM 33.1500 -98.0360 97° East 436 502 18,300 -4,364 Level FlightAware ADS-B
Sat 06:44:00 AM 33.1380 -97.9160 97° East 392 451 11,900 -5,615 Descending FlightAware ADS-B
Sat 06:44:38 AM 33.1300 -97.8390 97° East 390 449 11,000 -878 Descending FlightAware ADS-B
Sat 06:46:03 AM 33.1130 -97.6710 97° East 322 371 10,100 -660 Descending FlightAware ADS-B
Sat 06:46:18 AM 33.1100 -97.6460 98° East 315 362 9,900 -1,067 Descending FlightAware ADS-B
Sat 06:46:48 AM 33.1050 -97.5940 97° East 304 350 9,300 -1,100 Descending FlightAware ADS-B
Sat 06:47:18 AM 33.0980 -97.5480 100° East 296 341 8,800 -1,200 Descending FlightAware ADS-B
Sat 06:47:48 AM 33.0910 -97.4980 99° East 296 341 8,100 -1,309 Descending FlightAware ADS-B
Sat 06:48:13 AM 33.0890 -97.4570 93° East 294 338 7,600 -1,320 Descending FlightAware ADS-B
Sat 06:48:38 AM 33.0870 -97.4170 93° East 292 336 7,000 -1,345 Descending FlightAware ADS-B
Sat 06:49:11 AM 33.0820 -97.3640 96° East 285 328 6,300 -1,300 Descending FlightAware ADS-B
Sat 06:49:38 AM 33.0780 -97.3220 96° East 283 326 5,700 -1,071 Descending FlightAware ADS-B
Sat 06:50:07 AM 33.0740 -97.2800 96° East 272 313 5,300 -1,020 Descending FlightAware ADS-B
Sat 06:51:18 AM 33.0580 -97.1770 100° East 259 298 4,000 -933 Descending FlightAware ADS-B
Sat 06:51:37 AM 33.0540 -97.1500 100° East 242 278 3,900 -327 Descending FlightAware ADS-B
Sat 06:52:13 AM 33.0500 -97.1040 96° East 211 243 3,700 -492 Descending FlightAware ADS-B
Sat 06:52:38 AM 33.0440 -97.0780 105° East 179 206 3,400 -1,171 Descending FlightAware ADS-B
Sat 06:52:54 AM 33.0360 -97.0660 128° Southeast 177 204 2,900 -1,333 Descending FlightAware ADS-B
Sat 06:53:23 AM 33.0180 -97.0530 149° Southeast 161 185 2,400 -947 Descending FlightAware ADS-B
Sat 06:53:51 AM 32.9980 -97.0470 166° South 140 161 2,000 -750 Descending FlightAware ADS-B
Sat 06:54:19 AM 32.9820 -97.0480 183° South 129 148 1,700 -369 Descending FlightAware ADS-B
Sat 06:54:56 AM 32.9620 -97.0480 180° South 121 139 1,600 -162 Descending FlightAware ADS-B

Login

Don't have an account? Register now (free) for customized features, flight alerts, and more!